sensor_id;sensor_type;location;lat;lon;timestamp;pressure;altitude;pressure_sealevel;temperature;humidity
20424;BME280;10371;49.042;8.002;2023-04-16T00:00:25;99926.97;;;9.49;96.39
20424;BME280;10371;49.042;8.002;2023-04-16T00:01:27;99929.56;;;9.49;96.36
20424;BME280;10371;49.042;8.002;2023-04-16T00:02:27;99931.19;;;9.50;96.50
20424;BME280;10371;49.042;8.002;2023-04-16T00:03:27;99922.56;;;9.49;96.68
20424;BME280;10371;49.042;8.002;2023-04-16T00:04:28;99927.91;;;9.48;96.76
20424;BME280;10371;49.042;8.002;2023-04-16T00:05:28;99922.47;;;9.51;97.03
20424;BME280;10371;49.042;8.002;2023-04-16T00:06:28;99933.78;;;9.50;96.75
20424;BME280;10371;49.042;8.002;2023-04-16T00:07:28;99928.59;;;9.50;96.60
20424;BME280;10371;49.042;8.002;2023-04-16T00:08:29;99922.72;;;9.48;96.34
20424;BME280;10371;49.042;8.002;2023-04-16T00:09:29;99926.22;;;9.47;96.33
20424;BME280;10371;49.042;8.002;2023-04-16T00:10:30;99927.91;;;9.48;96.65
20424;BME280;10371;49.042;8.002;2023-04-16T00:11:30;99916.78;;;9.46;96.88
20424;BME280;10371;49.042;8.002;2023-04-16T00:12:30;99920.09;;;9.48;97.06
20424;BME280;10371;49.042;8.002;2023-04-16T00:13:31;99919.16;;;9.49;97.20
20424;BME280;10371;49.042;8.002;2023-04-16T00:14:31;99927.09;;;9.47;97.09
20424;BME280;10371;49.042;8.002;2023-04-16T00:15:31;99925.19;;;9.49;96.58
20424;BME280;10371;49.042;8.002;2023-04-16T00:16:32;99923.53;;;9.48;96.27
20424;BME280;10371;49.042;8.002;2023-04-16T00:17:32;99916.69;;;9.47;96.31
20424;BME280;10371;49.042;8.002;2023-04-16T00:18:32;99921.88;;;9.47;96.40
20424;BME280;10371;49.042;8.002;2023-04-16T00:19:32;99931.44;;;9.47;96.45
20424;BME280;10371;49.042;8.002;2023-04-16T00:20:33;99919.16;;;9.49;96.31
20424;BME280;10371;49.042;8.002;2023-04-16T00:21:33;99922.56;;;9.49;96.42
20424;BME280;10371;49.042;8.002;2023-04-16T00:22:33;99913.72;;;9.52;96.63
20424;BME280;10371;49.042;8.002;2023-04-16T00:23:34;99925.19;;;9.49;96.84
20424;BME280;10371;49.042;8.002;2023-04-16T00:24:34;99905.09;;;9.40;96.21
20424;BME280;10371;49.042;8.002;2023-04-16T00:25:34;99928.50;;;9.51;96.14
20424;BME280;10371;49.042;8.002;2023-04-16T00:26:35;99931.19;;;9.50;96.31
20424;BME280;10371;49.042;8.002;2023-04-16T00:27:35;99920.69;;;9.51;96.62
20424;BME280;10371;49.042;8.002;2023-04-16T00:28:35;99930.38;;;9.49;96.69
20424;BME280;10371;49.042;8.002;2023-04-16T00:29:35;99932.97;;;9.49;96.59
20424;BME280;10371;49.042;8.002;2023-04-16T00:30:36;99929.56;;;9.49;96.69
20424;BME280;10371;49.042;8.002;2023-04-16T00:31:36;99929.44;;;9.50;96.86
20424;BME280;10371;49.042;8.002;2023-04-16T00:32:37;99929.56;;;9.49;96.73
20424;BME280;10371;49.042;8.002;2023-04-16T00:33:37;99928.72;;;9.48;96.70
20424;BME280;10371;49.042;8.002;2023-04-16T00:34:37;99928.72;;;9.48;96.87
20424;BME280;10371;49.042;8.002;2023-04-16T00:35:37;99930.28;;;9.51;96.94
20424;BME280;10371;49.042;8.002;2023-04-16T00:36:38;99932.06;;;9.50;97.15
20424;BME280;10371;49.042;8.002;2023-04-16T00:37:38;99927.53;;;9.52;97.37
20424;BME280;10371;49.042;8.002;2023-04-16T00:38:38;99929.31;;;9.52;97.38
20424;BME280;10371;49.042;8.002;2023-04-16T00:39:38;99938.06;;;9.51;97.56
20424;BME280;10371;49.042;8.002;2023-04-16T00:40:39;99934.53;;;9.52;97.73
20424;BME280;10371;49.042;8.002;2023-04-16T00:41:39;99935.56;;;9.49;97.41
20424;BME280;10371;49.042;8.002;2023-04-16T00:42:40;99930.38;;;9.49;97.37
20424;BME280;10371;49.042;8.002;2023-04-16T00:43:40;99934.75;;;9.49;97.13
20424;BME280;10371;49.042;8.002;2023-04-16T00:44:40;99933.78;;;9.50;96.92
20424;BME280;10371;49.042;8.002;2023-04-16T00:45:41;99933.78;;;9.50;96.94
20424;BME280;10371;49.042;8.002;2023-04-16T00:46:41;99934.88;;;9.47;96.96
20424;BME280;10371;49.042;8.002;2023-04-16T00:47:41;99938.31;;;9.48;97.19
20424;BME280;10371;49.042;8.002;2023-04-16T00:48:42;99946.78;;;9.50;97.61
20424;BME280;10371;49.042;8.002;2023-04-16T00:49:43;99939.94;;;9.49;97.66
20424;BME280;10371;49.042;8.002;2023-04-16T00:50:44;99942.69;;;9.47;97.74
20424;BME280;10371;49.042;8.002;2023-04-16T00:51:44;99930.16;;;9.52;98.02
20424;BME280;10371;49.042;8.002;2023-04-16T00:52:48;99937.13;;;9.52;98.16
20424;BME280;10371;49.042;8.002;2023-04-16T00:53:49;99936.88;;;9.55;97.82
20424;BME280;10371;49.042;8.002;2023-04-16T00:54:49;99937.03;;;9.53;97.48
20424;BME280;10371;49.042;8.002;2023-04-16T00:55:50;99934.53;;;9.52;97.85
20424;BME280;10371;49.042;8.002;2023-04-16T00:56:50;99939.72;;;9.52;97.37
20424;BME280;10371;49.042;8.002;2023-04-16T00:57:51;99941.50;;;9.51;97.13
20424;BME280;10371;49.042;8.002;2023-04-16T00:58:51;99940.78;;;9.49;96.61
20424;BME280;10371;49.042;8.002;2023-04-16T00:59:51;99935.56;;;9.49;96.50
20424;BME280;10371;49.042;8.002;2023-04-16T01:00:53;99945.88;;;9.51;96.81
20424;BME280;10371;49.042;8.002;2023-04-16T01:01:53;99947.41;;;9.53;96.94
20424;BME280;10371;49.042;8.002;2023-04-16T01:02:53;99941.50;;;9.51;96.92
20424;BME280;10371;49.042;8.002;2023-04-16T01:03:54;99943.13;;;9.52;96.97
20424;BME280;10371;49.042;8.002;2023-04-16T01:04:55;99945.97;;;9.49;96.59
20424;BME280;10371;49.042;8.002;2023-04-16T01:05:56;99952.13;;;9.48;96.82
20424;BME280;10371;49.042;8.002;2023-04-16T01:06:56;99951.06;;;9.51;96.50
20424;BME280;10371;49.042;8.002;2023-04-16T01:07:59;99943.59;;;9.46;96.93
20424;BME280;10371;49.042;8.002;2023-04-16T01:09:00;99943.59;;;9.46;96.77
20424;BME280;10371;49.042;8.002;2023-04-16T01:10:01;99951.28;;;9.48;97.03
20424;BME280;10371;49.042;8.002;2023-04-16T01:11:01;99946.59;;;9.53;97.21
20424;BME280;10371;49.042;8.002;2023-04-16T01:12:02;99950.13;;;9.52;97.05
20424;BME280;10371;49.042;8.002;2023-04-16T01:13:02;99947.50;;;9.52;97.05
20424;BME280;10371;49.042;8.002;2023-04-16T01:14:03;99954.59;;;9.50;96.88
20424;BME280;10371;49.042;8.002;2023-04-16T01:15:03;99951.28;;;9.48;96.99
20424;BME280;10371;49.042;8.002;2023-04-16T01:16:08;99947.25;;;9.44;96.80
20424;BME280;10371;49.042;8.002;2023-04-16T01:17:08;99951.06;;;9.51;96.58
20424;BME280;10371;49.042;8.002;2023-04-16T01:18:17;99947.75;;;9.49;96.32
20424;BME280;10371;49.042;8.002;2023-04-16T01:19:17;99951.53;;;9.45;96.55
20424;BME280;10371;49.042;8.002;2023-04-16T01:20:18;99949.97;;;9.42;96.53
20424;BME280;10371;49.042;8.002;2023-04-16T01:21:18;99949.03;;;9.43;96.89
20424;BME280;10371;49.042;8.002;2023-04-16T01:22:18;99949.34;;;9.38;97.24
20424;BME280;10371;49.042;8.002;2023-04-16T01:23:18;99953.50;;;9.41;96.83
20424;BME280;10371;49.042;8.002;2023-04-16T01:24:19;99957.78;;;9.42;96.73
20424;BME280;10371;49.042;8.002;2023-04-16T01:25:20;99950.22;;;9.39;96.27
20424;BME280;10371;49.042;8.002;2023-04-16T01:26:20;99958.81;;;9.39;96.66
20424;BME280;10371;49.042;8.002;2023-04-16T01:27:20;99953.84;;;9.36;97.00
20424;BME280;10371;49.042;8.002;2023-04-16T01:28:21;99954.78;;;9.35;97.07
20424;BME280;10371;49.042;8.002;2023-04-16T01:29:21;99964.13;;;9.38;97.28
20424;BME280;10371;49.042;8.002;2023-04-16T01:30:21;99958.09;;;9.37;96.80
20424;BME280;10371;49.042;8.002;2023-04-16T01:31:22;99963.53;;;9.34;97.06
20424;BME280;10371;49.042;8.002;2023-04-16T01:32:22;99963.31;;;9.37;97.28
20424;BME280;10371;49.042;8.002;2023-04-16T01:33:22;99966.13;;;9.34;97.02
20424;BME280;10371;49.042;8.002;2023-04-16T01:34:23;99964.34;;;9.35;96.95
20424;BME280;10371;49.042;8.002;2023-04-16T01:35:23;99948.75;;;9.35;97.01
20424;BME280;10371;49.042;8.002;2023-04-16T01:36:24;99956.78;;;9.32;96.98
20424;BME280;10371;49.042;8.002;2023-04-16T01:37:26;99963.53;;;9.34;96.99
20424;BME280;10371;49.042;8.002;2023-04-16T01:38:26;99963.31;;;9.37;97.21
20424;BME280;10371;49.042;8.002;2023-04-16T01:39:26;99963.31;;;9.37;96.85
20424;BME280;10371;49.042;8.002;2023-04-16T01:40:27;99966.38;;;9.43;96.96
20424;BME280;10371;49.042;8.002;2023-04-16T01:41:27;99961.28;;;9.41;96.21
20424;BME280;10371;49.042;8.002;2023-04-16T01:42:27;99965.34;;;9.45;96.05
20424;BME280;10371;49.042;8.002;2023-04-16T01:43:27;99964.06;;;9.51;95.93
20424;BME280;10371;49.042;8.002;2023-04-16T01:44:28;99954.97;;;9.56;95.73
20424;BME280;10371;49.042;8.002;2023-04-16T01:45:30;99963.00;;;9.53;95.25
20424;BME280;10371;49.042;8.002;2023-04-16T01:46:32;99954.97;;;9.56;95.44
20424;BME280;10371;49.042;8.002;2023-04-16T01:47:34;99965.38;;;9.56;95.54
20424;BME280;10371;49.042;8.002;2023-04-16T01:48:34;99965.16;;;9.59;95.75
20424;BME280;10371;49.042;8.002;2023-04-16T01:49:35;99953.94;;;9.59;95.63
20424;BME280;10371;49.042;8.002;2023-04-16T01:50:35;99955.06;;;9.55;95.24
20424;BME280;10371;49.042;8.002;2023-04-16T01:51:36;99963.25;;;9.50;95.49
20424;BME280;10371;49.042;8.002;2023-04-16T01:52:36;99960.50;;;9.52;95.79
20424;BME280;10371;49.042;8.002;2023-04-16T01:53:37;99959.91;;;9.48;95.60
20424;BME280;10371;49.042;8.002;2023-04-16T01:54:37;99959.91;;;9.48;95.27
20424;BME280;10371;49.042;8.002;2023-04-16T01:55:37;99965.13;;;9.48;95.17
20424;BME280;10371;49.042;8.002;2023-04-16T01:56:37;99964.16;;;9.49;95.25
20424;BME280;10371;49.042;8.002;2023-04-16T01:57:38;99963.47;;;9.47;95.00
20424;BME280;10371;49.042;8.002;2023-04-16T01:58:38;99957.41;;;9.47;95.07
20424;BME280;10371;49.042;8.002;2023-04-16T01:59:40;99958.97;;;9.49;95.07
20424;BME280;10371;49.042;8.002;2023-04-16T02:00:40;99961.56;;;9.49;94.81
20424;BME280;10371;49.042;8.002;2023-04-16T02:01:40;99966.06;;;9.47;94.87
20424;BME280;10371;49.042;8.002;2023-04-16T02:02:41;99962.00;;;9.43;94.88
20424;BME280;10371;49.042;8.002;2023-04-16T02:03:41;99963.78;;;9.43;95.24
20424;BME280;10371;49.042;8.002;2023-04-16T02:04:43;99955.78;;;9.46;95.57
20424;BME280;10371;49.042;8.002;2023-04-16T02:05:44;99963.66;;;9.44;95.87
20424;BME280;10371;49.042;8.002;2023-04-16T02:06:44;99961.91;;;9.45;95.92
20424;BME280;10371;49.042;8.002;2023-04-16T02:07:45;99967.81;;;9.47;95.81
20424;BME280;10371;49.042;8.002;2023-04-16T02:08:45;99958.59;;;9.43;96.10
20424;BME280;10371;49.042;8.002;2023-04-16T02:09:45;99956.91;;;9.42;95.42
20424;BME280;10371;49.042;8.002;2023-04-16T02:10:46;99961.44;;;9.39;95.40
20424;BME280;10371;49.042;8.002;2023-04-16T02:11:46;99957.78;;;9.42;95.67
20424;BME280;10371;49.042;8.002;2023-04-16T02:12:47;99958.59;;;9.43;95.56
20424;BME280;10371;49.042;8.002;2023-04-16T02:13:47;99971.81;;;9.39;95.55
20424;BME280;10371;49.042;8.002;2023-04-16T02:14:47;99962.47;;;9.37;95.77
20424;BME280;10371;49.042;8.002;2023-04-16T02:15:49;99966.63;;;9.39;95.87
20424;BME280;10371;49.042;8.002;2023-04-16T02:16:52;99970.03;;;9.40;96.02
20424;BME280;10371;49.042;8.002;2023-04-16T02:17:53;99970.75;;;9.42;95.40
20424;BME280;10371;49.042;8.002;2023-04-16T02:18:55;99965.56;;;9.42;95.05
20424;BME280;10371;49.042;8.002;2023-04-16T02:19:56;99979.16;;;9.46;94.81
20424;BME280;10371;49.042;8.002;2023-04-16T02:20:57;99968.16;;;9.42;94.69
20424;BME280;10371;49.042;8.002;2023-04-16T02:21:59;99973.38;;;9.42;94.74
20424;BME280;10371;49.042;8.002;2023-04-16T02:23:00;99969.81;;;9.43;95.12
20424;BME280;10371;49.042;8.002;2023-04-16T02:24:01;99974.28;;;9.41;95.29
20424;BME280;10371;49.042;8.002;2023-04-16T02:25:02;99965.81;;;9.39;95.15
20424;BME280;10371;49.042;8.002;2023-04-16T02:26:02;99974.28;;;9.41;95.29
20424;BME280;10371;49.042;8.002;2023-04-16T02:27:02;99976.78;;;9.43;95.25
20424;BME280;10371;49.042;8.002;2023-04-16T02:28:03;99976.56;;;9.46;95.35
20424;BME280;10371;49.042;8.002;2023-04-16T02:29:03;99974.06;;;9.44;95.39
20424;BME280;10371;49.042;8.002;2023-04-16T02:30:03;99978.66;;;9.40;95.25
20424;BME280;10371;49.042;8.002;2023-04-16T02:31:04;99976.28;;;9.37;95.32
20424;BME280;10371;49.042;8.002;2023-04-16T02:32:04;99976.19;;;9.39;95.45
20424;BME280;10371;49.042;8.002;2023-04-16T02:33:06;99976.19;;;9.39;95.72
20424;BME280;10371;49.042;8.002;2023-04-16T02:34:07;99978.28;;;9.34;96.09
20424;BME280;10371;49.042;8.002;2023-04-16T02:35:07;99979.72;;;9.38;95.76
20424;BME280;10371;49.042;8.002;2023-04-16T02:36:08;99981.38;;;9.39;95.54
20424;BME280;10371;49.042;8.002;2023-04-16T02:37:10;99973.91;;;9.34;95.33
20424;BME280;10371;49.042;8.002;2023-04-16T02:38:10;99976.38;;;9.36;95.19
20424;BME280;10371;49.042;8.002;2023-04-16T02:39:10;99982.91;;;9.42;95.32
20424;BME280;10371;49.042;8.002;2023-04-16T02:40:11;99981.03;;;9.44;95.12
20424;BME280;10371;49.042;8.002;2023-04-16T02:41:11;99980.31;;;9.42;94.71
20424;BME280;10371;49.042;8.002;2023-04-16T02:42:13;99979.47;;;9.41;94.57
20424;BME280;10371;49.042;8.002;2023-04-16T02:43:13;99983.63;;;9.44;94.65
20424;BME280;10371;49.042;8.002;2023-04-16T02:44:13;99970.88;;;9.40;94.85
20424;BME280;10371;49.042;8.002;2023-04-16T02:45:13;99980.31;;;9.42;94.93
20424;BME280;10371;49.042;8.002;2023-04-16T02:46:14;99977.84;;;9.40;94.64
20424;BME280;10371;49.042;8.002;2023-04-16T02:47:14;99978.66;;;9.40;94.53
20424;BME280;10371;49.042;8.002;2023-04-16T02:48:14;99981.97;;;9.43;94.76
20424;BME280;10371;49.042;8.002;2023-04-16T02:49:15;99981.25;;;9.40;94.74
20424;BME280;10371;49.042;8.002;2023-04-16T02:50:15;99983.84;;;9.40;94.61
20424;BME280;10371;49.042;8.002;2023-04-16T02:51:16;99977.84;;;9.40;94.68
20424;BME280;10371;49.042;8.002;2023-04-16T02:52:16;99977.00;;;9.39;94.60
20424;BME280;10371;49.042;8.002;2023-04-16T02:53:16;99980.31;;;9.42;94.48
20424;BME280;10371;49.042;8.002;2023-04-16T02:54:16;99979.38;;;9.43;94.39
20424;BME280;10371;49.042;8.002;2023-04-16T02:55:17;99981.03;;;9.44;94.28
20424;BME280;10371;49.042;8.002;2023-04-16T02:56:17;99972.41;;;9.43;94.21
20424;BME280;10371;49.042;8.002;2023-04-16T02:57:17;99976.56;;;9.46;94.19
20424;BME280;10371;49.042;8.002;2023-04-16T02:58:19;99978.94;;;9.49;94.28
20424;BME280;10371;49.042;8.002;2023-04-16T02:59:20;99978.19;;;9.47;93.90
20424;BME280;10371;49.042;8.002;2023-04-16T03:00:20;99984.34;;;9.46;93.80
20424;BME280;10371;49.042;8.002;2023-04-16T03:01:20;99977.72;;;9.42;94.10
20424;BME280;10371;49.042;8.002;2023-04-16T03:02:20;99983.53;;;9.45;94.40
20424;BME280;10371;49.042;8.002;2023-04-16T03:03:21;99981.75;;;9.46;94.40
20424;BME280;10371;49.042;8.002;2023-04-16T03:04:21;99978.44;;;9.44;94.45
20424;BME280;10371;49.042;8.002;2023-04-16T03:05:21;99974.41;;;9.39;94.17
20424;BME280;10371;49.042;8.002;2023-04-16T03:06:22;99982.91;;;9.42;94.28
20424;BME280;10371;49.042;8.002;2023-04-16T03:07:22;99980.09;;;9.45;94.10
20424;BME280;10371;49.042;8.002;2023-04-16T03:08:22;99972.75;;;9.38;94.17
20424;BME280;10371;49.042;8.002;2023-04-16T03:09:22;99981.03;;;9.44;94.30
20424;BME280;10371;49.042;8.002;2023-04-16T03:10:23;99984.44;;;9.44;93.96
20424;BME280;10371;49.042;8.002;2023-04-16T03:11:23;99982.56;;;9.46;94.22
20424;BME280;10371;49.042;8.002;2023-04-16T03:12:23;99974.78;;;9.46;94.38
20424;BME280;10371;49.042;8.002;2023-04-16T03:13:23;99979.16;;;9.46;94.29
20424;BME280;10371;49.042;8.002;2023-04-16T03:14:24;99975.84;;;9.44;94.00
20424;BME280;10371;49.042;8.002;2023-04-16T03:15:24;99977.50;;;9.45;94.15
20424;BME280;10371;49.042;8.002;2023-04-16T03:16:25;99972.31;;;9.45;94.54
20424;BME280;10371;49.042;8.002;2023-04-16T03:17:26;99976.56;;;9.46;94.27
20424;BME280;10371;49.042;8.002;2023-04-16T03:18:26;99979.97;;;9.46;94.28
20424;BME280;10371;49.042;8.002;2023-04-16T03:19:26;99974.91;;;9.45;94.57
20424;BME280;10371;49.042;8.002;2023-04-16T03:20:27;99974.41;;;9.39;94.02
20424;BME280;10371;49.042;8.002;2023-04-16T03:21:27;99970.03;;;9.40;94.20
20424;BME280;10371;49.042;8.002;2023-04-16T03:22:27;99977.94;;;9.38;94.54
20424;BME280;10371;49.042;8.002;2023-04-16T03:23:27;99974.41;;;9.39;94.69
20424;BME280;10371;49.042;8.002;2023-04-16T03:24:28;99973.47;;;9.40;94.99
20424;BME280;10371;49.042;8.002;2023-04-16T03:25:28;99976.19;;;9.39;95.01
20424;BME280;10371;49.042;8.002;2023-04-16T03:26:29;99977.94;;;9.38;94.96
20424;BME280;10371;49.042;8.002;2023-04-16T03:27:29;99975.34;;;9.38;94.63
20424;BME280;10371;49.042;8.002;2023-04-16T03:28:30;99980.44;;;9.40;93.95
20424;BME280;10371;49.042;8.002;2023-04-16T03:29:30;99975.34;;;9.38;93.78
20424;BME280;10371;49.042;8.002;2023-04-16T03:30:30;99983.84;;;9.40;94.14
20424;BME280;10371;49.042;8.002;2023-04-16T03:31:30;99984.59;;;9.43;94.21
20424;BME280;10371;49.042;8.002;2023-04-16T03:32:31;99980.09;;;9.45;94.30
20424;BME280;10371;49.042;8.002;2023-04-16T03:33:31;99984.00;;;9.39;94.49
20424;BME280;10371;49.042;8.002;2023-04-16T03:34:31;99984.44;;;9.44;94.74
20424;BME280;10371;49.042;8.002;2023-04-16T03:35:31;99983.84;;;9.40;94.26
20424;BME280;10371;49.042;8.002;2023-04-16T03:36:32;99987.41;;;9.39;94.37
20424;BME280;10371;49.042;8.002;2023-04-16T03:37:33;99990.94;;;9.38;94.53
20424;BME280;10371;49.042;8.002;2023-04-16T03:38:33;99984.81;;;9.39;94.49
20424;BME280;10371;49.042;8.002;2023-04-16T03:39:34;99982.22;;;9.39;94.00
20424;BME280;10371;49.042;8.002;2023-04-16T03:40:34;99990.69;;;9.42;93.92
20424;BME280;10371;49.042;8.002;2023-04-16T03:41:34;99989.06;;;9.40;94.04
20424;BME280;10371;49.042;8.002;2023-04-16T03:42:35;99989.06;;;9.40;94.21
20424;BME280;10371;49.042;8.002;2023-04-16T03:43:35;99984.69;;;9.41;93.71
20424;BME280;10371;49.042;8.002;2023-04-16T03:44:35;99985.50;;;9.42;93.73
20424;BME280;10371;49.042;8.002;2023-04-16T03:45:36;99988.34;;;9.38;93.66
20424;BME280;10371;49.042;8.002;2023-04-16T03:46:36;99988.81;;;9.44;93.99
20424;BME280;10371;49.042;8.002;2023-04-16T03:47:36;99994.03;;;9.44;94.31
20424;BME280;10371;49.042;8.002;2023-04-16T03:48:36;99994.03;;;9.44;94.54
20424;BME280;10371;49.042;8.002;2023-04-16T03:49:37;99992.38;;;9.43;94.69
20424;BME280;10371;49.042;8.002;2023-04-16T03:50:37;99994.16;;;9.42;94.22
20424;BME280;10371;49.042;8.002;2023-04-16T03:51:37;99993.28;;;9.42;94.08
20424;BME280;10371;49.042;8.002;2023-04-16T03:52:37;99998.50;;;9.42;93.90
20424;BME280;10371;49.042;8.002;2023-04-16T03:53:38;99986.22;;;9.44;93.30
20424;BME280;10371;49.042;8.002;2023-04-16T03:54:38;99992.38;;;9.43;93.55
20424;BME280;10371;49.042;8.002;2023-04-16T03:55:39;99998.63;;;9.40;93.87
20424;BME280;10371;49.042;8.002;2023-04-16T03:56:39;99999.56;;;9.39;94.34
20424;BME280;10371;49.042;8.002;2023-04-16T03:57:40;99992.19;;;9.33;94.65
20424;BME280;10371;49.042;8.002;2023-04-16T03:58:41;99990.34;;;9.35;94.37
20424;BME280;10371;49.042;8.002;2023-04-16T03:59:41;99993.88;;;9.34;94.04
20424;BME280;10371;49.042;8.002;2023-04-16T04:00:42;99995.66;;;9.33;94.36
20424;BME280;10371;49.042;8.002;2023-04-16T04:01:42;99998.25;;;9.33;94.69
20424;BME280;10371;49.042;8.002;2023-04-16T04:02:42;99994.19;;;9.29;95.10
20424;BME280;10371;49.042;8.002;2023-04-16T04:03:43;99994.34;;;9.28;95.38
20424;BME280;10371;49.042;8.002;2023-04-16T04:04:43;100002.00;;;9.29;95.17
20424;BME280;10371;49.042;8.002;2023-04-16T04:05:43;100006.38;;;9.29;95.25
20424;BME280;10371;49.042;8.002;2023-04-16T04:06:44;100001.19;;;9.29;95.35
20424;BME280;10371;49.042;8.002;2023-04-16T04:07:45;99999.41;;;9.29;95.11
20424;BME280;10371;49.042;8.002;2023-04-16T04:08:46;100004.50;;;9.31;95.24
20424;BME280;10371;49.042;8.002;2023-04-16T04:09:46;100004.72;;;9.28;95.32
20424;BME280;10371;49.042;8.002;2023-04-16T04:10:46;100007.41;;;9.26;94.91
20424;BME280;10371;49.042;8.002;2023-04-16T04:11:46;100009.06;;;9.27;94.92
20424;BME280;10371;49.042;8.002;2023-04-16T04:12:47;100010.75;;;9.28;94.99
20424;BME280;10371;49.042;8.002;2023-04-16T04:13:47;100007.31;;;9.28;95.18
20424;BME280;10371;49.042;8.002;2023-04-16T04:14:47;100010.63;;;9.30;95.37
20424;BME280;10371;49.042;8.002;2023-04-16T04:15:47;100000.56;;;9.25;95.39
20424;BME280;10371;49.042;8.002;2023-04-16T04:16:48;100003.78;;;9.29;95.36
20424;BME280;10371;49.042;8.002;2023-04-16T04:17:48;100002.81;;;9.30;95.13
20424;BME280;10371;49.042;8.002;2023-04-16T04:18:48;100008.84;;;9.30;95.02
20424;BME280;10371;49.042;8.002;2023-04-16T04:19:48;100005.56;;;9.28;95.26
20424;BME280;10371;49.042;8.002;2023-04-16T04:20:49;100002.94;;;9.28;95.34
20424;BME280;10371;49.042;8.002;2023-04-16T04:21:49;100012.38;;;9.29;95.20
20424;BME280;10371;49.042;8.002;2023-04-16T04:22:50;100015.13;;;9.28;95.64
20424;BME280;10371;49.042;8.002;2023-04-16T04:23:50;100004.31;;;9.21;95.73
20424;BME280;10371;49.042;8.002;2023-04-16T04:24:50;100014.50;;;9.24;95.69
20424;BME280;10371;49.042;8.002;2023-04-16T04:25:50;100010.75;;;9.28;95.25
20424;BME280;10371;49.042;8.002;2023-04-16T04:26:51;100013.34;;;9.28;95.12
20424;BME280;10371;49.042;8.002;2023-04-16T04:27:51;100014.25;;;9.27;95.14
20424;BME280;10371;49.042;8.002;2023-04-16T04:28:51;100021.84;;;9.30;95.07
20424;BME280;10371;49.042;8.002;2023-04-16T04:29:52;100017.59;;;9.29;95.11
20424;BME280;10371;49.042;8.002;2023-04-16T04:30:52;100021.84;;;9.30;94.89
20424;BME280;10371;49.042;8.002;2023-04-16T04:31:52;100007.31;;;9.28;94.73
20424;BME280;10371;49.042;8.002;2023-04-16T04:32:54;100023.72;;;9.28;94.78
20424;BME280;10371;49.042;8.002;2023-04-16T04:33:54;100024.66;;;9.27;95.22
20424;BME280;10371;49.042;8.002;2023-04-16T04:34:54;100015.22;;;9.26;95.26
20424;BME280;10371;49.042;8.002;2023-04-16T04:35:55;100018.97;;;9.22;95.48
20424;BME280;10371;49.042;8.002;2023-04-16T04:36:55;100025.59;;;9.26;95.21
20424;BME280;10371;49.042;8.002;2023-04-16T04:37:55;100018.75;;;9.25;95.03
20424;BME280;10371;49.042;8.002;2023-04-16T04:38:56;100027.38;;;9.26;95.10
20424;BME280;10371;49.042;8.002;2023-04-16T04:39:56;100024.66;;;9.27;95.04
20424;BME280;10371;49.042;8.002;2023-04-16T04:40:57;100036.94;;;9.25;95.14
20424;BME280;10371;49.042;8.002;2023-04-16T04:41:57;100027.47;;;9.24;95.08
20424;BME280;10371;49.042;8.002;2023-04-16T04:42:58;100018.84;;;9.24;94.95
20424;BME280;10371;49.042;8.002;2023-04-16T04:43:58;100020.41;;;9.26;95.47
20424;BME280;10371;49.042;8.002;2023-04-16T04:44:58;100023.81;;;9.27;95.53
20424;BME280;10371;49.042;8.002;2023-04-16T04:45:58;100033.41;;;9.26;95.52
20424;BME280;10371;49.042;8.002;2023-04-16T04:46:59;100028.28;;;9.25;95.32
20424;BME280;10371;49.042;8.002;2023-04-16T04:47:59;100022.41;;;9.23;95.51
20424;BME280;10371;49.042;8.002;2023-04-16T04:48:59;100019.69;;;9.24;95.37
20424;BME280;10371;49.042;8.002;2023-04-16T04:49:59;100029.97;;;9.26;95.46
20424;BME280;10371;49.042;8.002;2023-04-16T04:51:00;100026.78;;;9.22;95.23
20424;BME280;10371;49.042;8.002;2023-04-16T04:52:00;100032.78;;;9.23;95.64
20424;BME280;10371;49.042;8.002;2023-04-16T04:53:01;100040.69;;;9.21;95.77
20424;BME280;10371;49.042;8.002;2023-04-16T04:54:01;100029.03;;;9.27;95.91
20424;BME280;10371;49.042;8.002;2023-04-16T04:55:01;100026.78;;;9.22;95.94
20424;BME280;10371;49.042;8.002;2023-04-16T04:56:01;100033.41;;;9.26;95.72
20424;BME280;10371;49.042;8.002;2023-04-16T04:57:02;100029.97;;;9.26;95.71
20424;BME280;10371;49.042;8.002;2023-04-16T04:58:03;100033.41;;;9.26;95.61
20424;BME280;10371;49.042;8.002;2023-04-16T04:59:03;100033.41;;;9.26;95.69
20424;BME280;10371;49.042;8.002;2023-04-16T05:00:04;100035.16;;;9.26;95.53
20424;BME280;10371;49.042;8.002;2023-04-16T05:01:04;100035.25;;;9.24;95.21
20424;BME280;10371;49.042;8.002;2023-04-16T05:02:06;100042.13;;;9.25;95.30
20424;BME280;10371;49.042;8.002;2023-04-16T05:03:09;100045.44;;;9.27;95.29
20424;BME280;10371;49.042;8.002;2023-04-16T05:04:10;100030.91;;;9.25;95.28
20424;BME280;10371;49.042;8.002;2023-04-16T05:05:11;100039.03;;;9.20;95.37
20424;BME280;10371;49.042;8.002;2023-04-16T05:06:11;100044.00;;;9.23;95.60
20424;BME280;10371;49.042;8.002;2023-04-16T05:07:11;100049.94;;;9.25;95.60
20424;BME280;10371;49.042;8.002;2023-04-16T05:08:11;100045.78;;;9.23;95.47
20424;BME280;10371;49.042;8.002;2023-04-16T05:09:12;100048.38;;;9.23;95.15
20424;BME280;10371;49.042;8.002;2023-04-16T05:10:12;100054.50;;;9.22;95.63
20424;BME280;10371;49.042;8.002;2023-04-16T05:11:13;100057.09;;;9.22;96.03
20424;BME280;10371;49.042;8.002;2023-04-16T05:12:13;100044.22;;;9.20;96.09
20424;BME280;10371;49.042;8.002;2023-04-16T05:13:13;100055.44;;;9.21;95.67
20424;BME280;10371;49.042;8.002;2023-04-16T05:14:13;100060.72;;;9.19;95.87
20424;BME280;10371;49.042;8.002;2023-04-16T05:15:14;100060.66;;;9.21;96.01
20424;BME280;10371;49.042;8.002;2023-04-16T05:16:14;100057.22;;;9.20;95.91
20424;BME280;10371;49.042;8.002;2023-04-16T05:17:15;100056.28;;;9.21;95.85
20424;BME280;10371;49.042;8.002;2023-04-16T05:18:15;100062.41;;;9.20;96.30
20424;BME280;10371;49.042;8.002;2023-04-16T05:19:16;100059.22;;;9.16;96.22
20424;BME280;10371;49.042;8.002;2023-04-16T05:20:16;100065.56;;;9.12;96.70
20424;BME280;10371;49.042;8.002;2023-04-16T05:21:16;100066.38;;;9.13;97.21
20424;BME280;10371;49.042;8.002;2023-04-16T05:22:17;100069.78;;;9.13;97.41
20424;BME280;10371;49.042;8.002;2023-04-16T05:23:17;100068.16;;;9.12;97.33